Time;durP1;ratioP1;P1;durP2;ratioP2;P2;SDS_P1;SDS_P2;PMS_P1;PMS_P2;Temp;Humidity;BMP_temperature;BMP_pressure;BME280_temperature;BME280_humidity;BME280_pressure;Samples;Min_cycle;Max_cycle;Signal;HPM_P1;HPM_P2
2022/05/22 00:01:41;;;;;;;1.48;1.02;;;14.60;57.20;;;;;;5095131;28;20047;-62
2022/05/22 00:04:08;;;;;;;2.88;1.50;;;14.50;57.20;;;;;;5085119;28;20028;-62
2022/05/22 00:06:35;;;;;;;3.90;1.70;;;14.60;57.40;;;;;;5091921;28;20024;-63
2022/05/22 00:09:00;;;;;;;5.85;1.33;;;14.50;57.50;;;;;;5089189;28;20040;-63
2022/05/22 00:11:26;;;;;;;1.52;1.05;;;14.50;57.50;;;;;;5085339;28;20024;-63
2022/05/22 00:13:52;;;;;;;3.05;1.35;;;14.50;57.60;;;;;;5089067;28;20056;-62
2022/05/22 00:16:36;;;;;;;1.88;1.02;;;14.50;57.50;;;;;;5071925;28;20039;-63
2022/05/22 00:19:11;;;;;;;4.35;1.23;;;14.40;57.50;;;;;;5082243;28;20028;-62
2022/05/22 00:21:37;;;;;;;2.65;1.25;;;14.40;57.60;;;;;;5086010;28;20035;-62
2022/05/22 00:24:03;;;;;;;1.65;1.00;;;14.40;57.50;;;;;;5082323;28;20503;-63
2022/05/22 00:26:29;;;;;;;2.20;1.10;;;14.40;57.50;;;;;;5093093;28;20024;-62
2022/05/22 00:28:55;;;;;;;1.50;0.98;;;14.30;57.50;;;;;;5100091;28;20081;-63
2022/05/22 00:31:21;;;;;;;1.90;1.20;;;14.30;57.60;;;;;;5075060;28;20047;-63
2022/05/22 00:33:46;;;;;;;2.78;1.10;;;14.30;57.70;;;;;;5088450;28;20409;-63
2022/05/22 00:36:12;;;;;;;1.98;1.10;;;14.30;57.80;;;;;;5098598;28;20043;-62
2022/05/22 00:38:38;;;;;;;1.10;0.90;;;14.20;57.80;;;;;;5095171;28;20028;-64
2022/05/22 00:41:04;;;;;;;3.10;1.17;;;14.20;57.90;;;;;;5089524;28;20052;-63
2022/05/22 00:43:34;;;;;;;1.98;1.15;;;14.20;58.10;;;;;;5092844;28;20070;-63
2022/05/22 00:46:02;;;;;;;3.65;1.00;;;14.20;58.10;;;;;;5088333;28;20036;-63
2022/05/22 00:48:28;;;;;;;3.47;1.20;;;14.20;58.00;;;;;;5087189;28;20035;-62
2022/05/22 00:51:07;;;;;;;2.65;1.10;;;14.20;58.00;;;;;;5090957;28;20102;-62
2022/05/22 00:53:39;;;;;;;4.03;1.10;;;14.10;58.20;;;;;;5086960;28;20020;-63
2022/05/22 00:56:09;;;;;;;3.53;1.20;;;14.10;58.40;;;;;;5086317;28;20028;-62
2022/05/22 00:58:35;;;;;;;3.10;1.33;;;14.10;58.30;;;;;;5103466;28;20024;-62
2022/05/22 01:01:02;;;;;;;9.18;2.28;;;14.00;58.20;;;;;;5097977;28;20024;-64
2022/05/22 01:03:31;;;;;;;1.20;1.10;;;14.00;58.40;;;;;;5101663;28;20028;-63
2022/05/22 01:06:02;;;;;;;5.05;1.25;;;14.00;58.60;;;;;;5096850;28;20064;-62
2022/05/22 01:08:28;;;;;;;1.98;1.20;;;14.00;58.60;;;;;;5083057;28;20104;-62
2022/05/22 01:11:05;;;;;;;2.78;1.20;;;13.90;58.40;;;;;;5089124;28;20040;-63
2022/05/22 01:13:38;;;;;;;2.15;1.10;;;13.90;59.00;;;;;;5096042;28;20027;-62
2022/05/22 01:16:06;;;;;;;3.83;1.30;;;13.90;59.00;;;;;;5085984;28;20123;-63
2022/05/22 01:18:45;;;;;;;3.25;1.02;;;13.80;58.60;;;;;;5091365;28;20126;-64
2022/05/22 01:21:17;;;;;;;2.10;1.25;;;13.80;59.10;;;;;;5089665;28;20032;-63
2022/05/22 01:23:43;;;;;;;2.33;1.20;;;13.80;58.60;;;;;;5093660;28;20020;-63
2022/05/22 01:26:09;;;;;;;2.55;1.35;;;13.80;58.60;;;;;;5083624;28;20032;-63
2022/05/22 01:28:35;;;;;;;1.55;1.15;;;13.80;58.80;;;;;;5090254;28;20027;-63
2022/05/22 01:31:01;;;;;;;4.53;1.40;;;13.70;58.90;;;;;;5084698;28;20024;-63
2022/05/22 01:33:27;;;;;;;1.92;1.20;;;13.70;58.90;;;;;;5084823;28;20036;-63
2022/05/22 01:35:53;;;;;;;5.57;1.52;;;13.70;58.90;;;;;;5088487;28;20115;-63
2022/05/22 01:38:19;;;;;;;3.65;0.98;;;13.70;58.90;;;;;;5088756;28;20025;-63
2022/05/22 01:40:45;;;;;;;2.13;1.30;;;13.70;58.90;;;;;;5093504;28;20977;-63
2022/05/22 01:43:10;;;;;;;2.58;0.95;;;13.60;58.90;;;;;;5083513;28;20048;-63
2022/05/22 01:45:36;;;;;;;2.92;1.23;;;13.60;58.80;;;;;;5093352;28;20024;-63
2022/05/22 01:48:02;;;;;;;2.20;1.40;;;13.60;58.90;;;;;;5088223;28;20030;-63
2022/05/22 01:50:29;;;;;;;4.45;1.23;;;13.60;58.80;;;;;;5092908;28;20513;-62
2022/05/22 01:52:55;;;;;;;1.55;1.20;;;13.50;58.90;;;;;;5089404;28;20036;-63
2022/05/22 01:55:21;;;;;;;2.58;1.20;;;13.50;59.10;;;;;;5092720;28;20063;-63
2022/05/22 01:57:47;;;;;;;3.85;1.20;;;13.50;59.20;;;;;;5091931;28;20508;-62
2022/05/22 02:00:15;;;;;;;3.20;1.27;;;13.40;59.30;;;;;;5088568;28;20118;-63
2022/05/22 02:02:42;;;;;;;2.33;1.13;;;13.40;59.30;;;;;;5090516;28;20035;-63
2022/05/22 02:05:08;;;;;;;3.40;1.35;;;13.40;59.30;;;;;;5087876;28;20020;-63
2022/05/22 02:10:18;;;;;;;2.75;1.20;;;13.40;59.60;;;;;;5094382;28;20044;-62
2022/05/22 02:12:45;;;;;;;3.80;1.20;;;13.30;59.30;;;;;;5091810;28;20052;-62
2022/05/22 02:15:10;;;;;;;3.67;1.50;;;13.30;59.50;;;;;;5071403;28;20354;-63
2022/05/22 02:17:36;;;;;;;2.70;1.25;;;13.30;59.60;;;;;;5084858;28;20073;-63
2022/05/22 02:20:03;;;;;;;1.40;1.20;;;13.20;59.60;;;;;;5087635;28;20052;-63
2022/05/22 02:22:28;;;;;;;1.00;0.95;;;13.20;59.50;;;;;;5087079;28;20020;-64
2022/05/22 02:24:54;;;;;;;3.15;1.17;;;13.20;59.50;;;;;;5084920;28;20059;-62
2022/05/22 02:27:21;;;;;;;6.35;1.48;;;13.20;59.60;;;;;;4986910;28;20085;-62
2022/05/22 02:29:47;;;;;;;1.48;1.10;;;13.10;59.60;;;;;;5072091;28;20036;-62
2022/05/22 02:32:12;;;;;;;4.32;1.48;;;13.20;59.70;;;;;;5088977;28;20097;-62
2022/05/22 02:34:38;;;;;;;1.98;1.30;;;13.10;59.80;;;;;;5087220;28;20064;-62
2022/05/22 02:37:04;;;;;;;20.33;1.27;;;13.10;59.70;;;;;;5086952;28;20023;-62
2022/05/22 02:39:31;;;;;;;1.65;1.20;;;13.10;59.60;;;;;;5085142;28;20035;-62
2022/05/22 02:42:06;;;;;;;2.70;1.15;;;13.10;59.60;;;;;;5087671;28;20084;-62
2022/05/22 02:44:32;;;;;;;3.50;1.20;;;13.10;60.30;;;;;;5083369;28;20021;-64
2022/05/22 02:46:58;;;;;;;3.50;1.45;;;13.00;59.60;;;;;;5074528;28;20017;-62
2022/05/22 02:49:24;;;;;;;2.05;1.27;;;13.00;59.70;;;;;;5088109;28;20050;-62
2022/05/22 02:51:49;;;;;;;8.10;1.40;;;13.00;59.90;;;;;;5064886;28;20079;-64
2022/05/22 02:54:15;;;;;;;6.53;1.60;;;13.00;60.00;;;;;;5069560;28;20033;-63
2022/05/22 02:56:41;;;;;;;2.83;1.08;;;13.00;60.10;;;;;;5067713;28;20689;-64
2022/05/22 02:59:07;;;;;;;1.98;1.35;;;12.90;60.20;;;;;;5068743;28;20131;-64
2022/05/22 03:01:33;;;;;;;3.45;1.35;;;12.90;60.10;;;;;;5067806;28;20025;-64
2022/05/22 03:03:58;;;;;;;2.35;1.17;;;12.90;60.00;;;;;;5067234;28;20539;-64
2022/05/22 03:06:39;;;;;;;1.88;1.20;;;12.90;59.90;;;;;;5071382;28;20112;-64
2022/05/22 03:09:16;;;;;;;4.70;1.35;;;12.90;60.00;;;;;;5071195;28;20036;-64
2022/05/22 03:11:43;;;;;;;4.78;1.60;;;12.80;60.90;;;;;;5068105;28;20071;-64
2022/05/22 03:14:09;;;;;;;3.47;1.30;;;12.80;60.20;;;;;;5051212;28;20142;-64
2022/05/22 03:16:35;;;;;;;2.00;1.20;;;12.80;60.30;;;;;;5065479;28;20051;-64
2022/05/22 03:19:01;;;;;;;3.70;1.55;;;12.80;60.40;;;;;;5072017;28;20039;-64
2022/05/22 03:21:27;;;;;;;2.00;1.38;;;12.80;60.60;;;;;;5071128;28;20700;-64
2022/05/22 03:23:53;;;;;;;1.85;1.10;;;12.80;60.60;;;;;;5052495;28;20119;-64
2022/05/22 03:26:19;;;;;;;2.60;1.55;;;12.80;60.60;;;;;;4982883;28;20550;-64
2022/05/22 03:28:45;;;;;;;2.85;1.30;;;12.80;60.70;;;;;;5065325;28;20032;-62
2022/05/22 03:31:11;;;;;;;2.28;1.25;;;12.70;60.70;;;;;;5064327;28;20036;-62
2022/05/22 03:33:36;;;;;;;5.05;1.90;;;12.70;60.60;;;;;;5066172;28;20033;-62
2022/05/22 03:36:04;;;;;;;2.08;1.20;;;12.70;60.70;;;;;;5073000;28;20031;-63
2022/05/22 03:38:30;;;;;;;4.53;1.35;;;12.70;60.80;;;;;;5074933;28;20024;-62
2022/05/22 03:40:56;;;;;;;2.22;1.02;;;12.70;60.70;;;;;;5075193;28;20031;-64
2022/05/22 03:43:21;;;;;;;4.72;1.30;;;12.70;60.90;;;;;;5073386;28;20048;-62
2022/05/22 03:45:47;;;;;;;5.07;1.10;;;12.70;60.90;;;;;;5073186;28;20020;-62
2022/05/22 03:48:13;;;;;;;2.55;1.00;;;12.70;60.90;;;;;;5070347;28;20149;-62
2022/05/22 03:50:39;;;;;;;2.60;1.35;;;12.70;61.00;;;;;;5063441;28;20055;-62
2022/05/22 03:53:05;;;;;;;1.35;1.10;;;12.70;60.90;;;;;;5086701;28;20059;-63
2022/05/22 03:55:31;;;;;;;1.25;1.00;;;12.60;60.80;;;;;;5072837;28;20042;-63
2022/05/22 03:57:57;;;;;;;2.55;1.33;;;12.60;60.90;;;;;;5073475;28;20044;-62
2022/05/22 04:00:24;;;;;;;1.30;1.10;;;12.60;60.80;;;;;;5073541;28;20091;-62
2022/05/22 04:02:50;;;;;;;2.17;1.13;;;12.60;60.80;;;;;;5088822;28;20025;-62
2022/05/22 04:05:16;;;;;;;1.58;1.27;;;12.60;60.90;;;;;;5088907;28;20026;-62
2022/05/22 04:07:44;;;;;;;3.45;1.25;;;12.60;61.00;;;;;;5091051;28;20076;-64
2022/05/22 04:10:12;;;;;;;2.22;1.13;;;12.60;61.00;;;;;;5086332;28;20028;-63
2022/05/22 04:12:39;;;;;;;3.05;1.40;;;12.60;61.00;;;;;;5089572;28;20086;-63
2022/05/22 04:15:08;;;;;;;2.88;1.30;;;12.70;61.60;;;;;;5089159;28;20048;-62
2022/05/22 04:17:34;;;;;;;2.97;1.30;;;12.70;61.30;;;;;;5088762;28;20019;-62
2022/05/22 04:20:00;;;;;;;3.53;1.20;;;12.70;61.30;;;;;;5089816;28;20031;-63
2022/05/22 04:22:26;;;;;;;2.38;1.40;;;12.70;61.30;;;;;;5065926;28;20080;-62
2022/05/22 04:25:11;;;;;;;2.70;1.30;;;12.80;61.30;;;;;;5087590;28;20033;-63
2022/05/22 04:27:41;;;;;;;3.63;1.50;;;12.90;61.20;;;;;;5089555;28;20036;-64
2022/05/22 04:30:17;;;;;;;2.42;0.98;;;12.90;61.40;;;;;;5086173;28;20029;-62
2022/05/22 04:32:44;;;;;;;2.15;1.20;;;13.00;61.40;;;;;;5086778;28;20064;-63
2022/05/22 04:35:10;;;;;;;3.63;1.20;;;13.00;61.30;;;;;;5085884;28;20037;-63
2022/05/22 04:37:35;;;;;;;1.75;0.95;;;13.10;61.40;;;;;;5082036;28;20028;-63
2022/05/22 04:40:01;;;;;;;2.85;1.02;;;13.20;61.30;;;;;;5090438;28;20035;-63
2022/05/22 04:42:26;;;;;;;1.35;1.20;;;13.30;61.50;;;;;;5087296;28;20032;-62
2022/05/22 04:44:52;;;;;;;4.22;1.30;;;13.30;61.50;;;;;;5089003;28;20028;-62
2022/05/22 04:47:18;;;;;;;1.67;1.15;;;13.40;61.50;;;;;;5086120;28;20022;-63
2022/05/22 04:49:47;;;;;;;1.88;1.10;;;13.50;61.40;;;;;;5091362;28;20031;-62
2022/05/22 04:52:12;;;;;;;2.10;1.20;;;13.60;61.40;;;;;;5097885;28;20044;-63
2022/05/22 04:54:38;;;;;;;1.65;1.05;;;13.60;61.10;;;;;;5089549;28;20057;-64
2022/05/22 04:57:04;;;;;;;2.15;1.10;;;13.70;60.90;;;;;;5092788;28;20099;-62
2022/05/22 04:59:30;;;;;;;2.28;1.10;;;13.80;60.80;;;;;;5087201;28;20025;-62
2022/05/22 05:01:55;;;;;;;1.80;1.10;;;13.90;60.60;;;;;;5088426;28;20028;-62
2022/05/22 05:04:21;;;;;;;2.80;1.30;;;13.90;60.80;;;;;;5091147;28;20412;-63
2022/05/22 05:06:47;;;;;;;3.67;1.30;;;14.00;60.80;;;;;;5085205;28;20500;-63
2022/05/22 05:09:12;;;;;;;1.88;1.15;;;14.00;60.70;;;;;;5091717;28;20112;-63
2022/05/22 05:11:38;;;;;;;1.98;1.30;;;14.10;60.70;;;;;;5087692;28;20121;-63
2022/05/22 05:14:04;;;;;;;2.03;1.15;;;14.20;60.70;;;;;;5085267;28;20043;-63
2022/05/22 05:16:30;;;;;;;3.90;1.10;;;14.30;60.70;;;;;;5092751;28;20021;-64
2022/05/22 05:18:55;;;;;;;1.63;1.25;;;14.40;60.70;;;;;;5075835;28;20046;-64
2022/05/22 05:21:21;;;;;;;4.55;1.10;;;14.60;60.60;;;;;;5088905;28;20033;-64
2022/05/22 05:23:47;;;;;;;1.80;0.90;;;14.70;60.40;;;;;;5089226;28;20039;-64
2022/05/22 05:26:13;;;;;;;2.00;1.05;;;14.80;60.10;;;;;;5082752;28;20024;-64
2022/05/22 05:28:38;;;;;;;4.05;1.30;;;14.90;59.90;;;;;;5087784;28;20025;-64
2022/05/22 05:31:04;;;;;;;5.15;1.27;;;15.00;59.80;;;;;;5090216;28;20028;-63
2022/05/22 05:33:34;;;;;;;5.07;1.15;;;15.10;59.60;;;;;;5093976;28;20046;-62
2022/05/22 05:36:00;;;;;;;1.40;1.00;;;15.20;59.40;;;;;;5093462;28;20028;-62
2022/05/22 05:38:26;;;;;;;4.03;1.33;;;15.30;59.40;;;;;;5085416;28;20047;-62
2022/05/22 05:40:52;;;;;;;2.90;1.10;;;15.40;59.60;;;;;;5086188;28;20028;-63
2022/05/22 05:43:19;;;;;;;1.83;1.25;;;15.50;59.50;;;;;;5086363;28;20048;-63
2022/05/22 05:45:45;;;;;;;1.50;1.35;;;15.60;59.40;;;;;;5091443;28;20035;-62
2022/05/22 05:48:10;;;;;;;4.30;1.13;;;15.80;59.20;;;;;;5085580;28;20551;-63
2022/05/22 05:50:36;;;;;;;2.35;1.27;;;15.90;58.90;;;;;;5084028;28;20035;-63
2022/05/22 05:53:02;;;;;;;5.00;1.27;;;16.00;58.70;;;;;;5088961;28;20052;-63
2022/05/22 05:55:29;;;;;;;1.65;1.10;;;16.10;58.60;;;;;;5081639;28;20036;-63
2022/05/22 05:57:56;;;;;;;5.88;1.45;;;16.20;58.50;;;;;;5087305;28;20128;-63
2022/05/22 06:00:24;;;;;;;2.53;1.35;;;16.40;58.50;;;;;;5085302;28;20030;-63
2022/05/22 06:02:50;;;;;;;2.17;1.25;;;16.60;58.40;;;;;;5090360;28;20031;-63
2022/05/22 06:05:16;;;;;;;3.05;1.38;;;16.70;58.20;;;;;;5086544;28;20465;-63
2022/05/22 06:07:42;;;;;;;2.13;1.10;;;16.80;58.00;;;;;;5087800;28;20434;-61
2022/05/22 06:10:10;;;;;;;8.10;1.48;;;17.00;57.90;;;;;;5070192;28;20097;-62
2022/05/22 06:12:36;;;;;;;2.67;1.45;;;17.20;57.90;;;;;;5087139;28;20029;-62
2022/05/22 06:15:02;;;;;;;3.08;1.30;;;17.30;57.90;;;;;;5068451;28;20053;-62
2022/05/22 06:17:34;;;;;;;3.53;1.65;;;17.50;57.90;;;;;;5086593;28;20054;-62
2022/05/22 06:20:00;;;;;;;3.72;1.50;;;17.70;57.70;;;;;;5086157;28;20027;-62
2022/05/22 06:22:31;;;;;;;4.82;1.35;;;17.90;57.30;;;;;;5093370;28;20026;-61
2022/05/22 06:24:58;;;;;;;4.18;1.70;;;18.10;56.90;;;;;;5082662;28;20337;-61
2022/05/22 06:27:23;;;;;;;2.15;1.33;;;18.20;56.70;;;;;;5086898;28;20016;-62
2022/05/22 06:29:49;;;;;;;3.83;1.60;;;18.40;56.40;;;;;;5084662;28;20028;-62
2022/05/22 06:32:18;;;;;;;2.58;1.42;;;18.50;56.00;;;;;;5087913;28;20020;-61
2022/05/22 06:34:44;;;;;;;5.50;1.88;;;18.70;55.90;;;;;;5090647;28;20380;-63
2022/05/22 06:37:16;;;;;;;2.90;1.35;;;18.80;55.70;;;;;;5086343;28;20025;-63
2022/05/22 06:39:52;;;;;;;5.15;1.55;;;19.00;55.60;;;;;;5072626;28;20028;-62
2022/05/22 06:42:26;;;;;;;2.90;1.65;;;19.10;55.10;;;;;;5083349;28;20050;-62
2022/05/22 06:45:09;;;;;;;3.90;1.73;;;19.30;54.70;;;;;;5087850;28;20158;-64
2022/05/22 06:47:36;;;;;;;3.10;1.35;;;19.40;54.40;;;;;;5084908;28;20332;-62
2022/05/22 06:50:05;;;;;;;6.57;2.20;;;19.50;54.30;;;;;;5070020;28;20111;-63
2022/05/22 06:52:32;;;;;;;2.75;1.80;;;19.60;54.00;;;;;;5087076;28;20044;-62
2022/05/22 06:55:01;;;;;;;10.10;1.70;;;19.60;53.80;;;;;;5080734;28;20445;-63
2022/05/22 06:57:28;;;;;;;7.38;1.92;;;19.60;53.70;;;;;;5083610;28;20036;-62
2022/05/22 06:59:56;;;;;;;2.17;1.45;;;19.70;53.70;;;;;;5088611;28;20032;-64
2022/05/22 07:02:23;;;;;;;4.82;2.00;;;19.80;53.40;;;;;;5087453;28;20401;-62
2022/05/22 07:04:48;;;;;;;3.58;1.80;;;19.90;53.10;;;;;;5085248;28;20039;-63
2022/05/22 07:07:14;;;;;;;3.88;1.80;;;20.00;53.20;;;;;;5072465;28;20024;-62
2022/05/22 07:09:40;;;;;;;3.90;1.80;;;20.20;52.90;;;;;;5085908;28;20028;-61
2022/05/22 07:12:08;;;;;;;2.38;1.45;;;20.20;52.80;;;;;;5093785;28;20032;-62
2022/05/22 07:14:34;;;;;;;5.65;1.70;;;20.40;53.00;;;;;;5096397;28;20046;-62
2022/05/22 07:17:04;;;;;;;4.10;1.70;;;20.50;52.40;;;;;;5083060;28;20082;-62
2022/05/22 07:19:30;;;;;;;2.92;1.83;;;20.70;51.70;;;;;;5085557;28;20049;-62
2022/05/22 07:21:55;;;;;;;5.45;1.45;;;20.80;51.50;;;;;;5086109;28;20061;-63
2022/05/22 07:24:21;;;;;;;3.40;1.60;;;20.90;51.40;;;;;;5091777;28;20034;-61
2022/05/22 07:26:46;;;;;;;5.10;1.52;;;21.00;51.40;;;;;;5085663;28;20032;-63
2022/05/22 07:29:12;;;;;;;4.53;1.67;;;21.10;51.10;;;;;;5085882;28;20032;-62
2022/05/22 07:31:40;;;;;;;5.00;1.70;;;21.20;50.80;;;;;;5085735;28;20086;-62
2022/05/22 07:34:06;;;;;;;4.63;1.60;;;21.40;50.40;;;;;;5079726;28;20062;-62
2022/05/22 07:36:32;;;;;;;4.35;2.00;;;21.40;50.20;;;;;;5086369;28;20012;-63
2022/05/22 07:38:58;;;;;;;3.78;1.70;;;21.50;50.40;;;;;;5089524;28;20116;-62
2022/05/22 07:41:23;;;;;;;4.40;1.70;;;21.60;50.30;;;;;;5089630;28;20044;-63
2022/05/22 07:43:49;;;;;;;5.53;1.60;;;21.70;49.90;;;;;;5082223;28;20456;-62
2022/05/22 07:46:15;;;;;;;3.90;1.70;;;21.80;49.50;;;;;;5086599;28;20050;-62
2022/05/22 07:48:42;;;;;;;4.75;1.67;;;21.90;49.30;;;;;;5086913;28;20048;-62
2022/05/22 07:51:09;;;;;;;4.85;1.70;;;22.00;49.20;;;;;;5090350;28;20165;-62
2022/05/22 07:53:35;;;;;;;5.40;1.75;;;22.10;49.40;;;;;;5083455;28;20016;-62
2022/05/22 07:56:02;;;;;;;2.17;1.25;;;22.20;49.00;;;;;;5081726;28;20036;-62
2022/05/22 07:58:29;;;;;;;3.95;1.50;;;22.30;48.50;;;;;;5088833;28;20023;-62
2022/05/22 08:00:56;;;;;;;3.35;1.42;;;22.30;48.30;;;;;;5091280;28;20020;-62
2022/05/22 08:03:22;;;;;;;3.55;1.48;;;22.40;48.10;;;;;;5087279;28;20024;-62
2022/05/22 08:05:48;;;;;;;3.67;1.58;;;22.50;47.70;;;;;;5087925;28;20029;-62
2022/05/22 08:08:16;;;;;;;3.70;1.80;;;22.50;47.90;;;;;;5089704;28;20108;-62
2022/05/22 08:10:42;;;;;;;2.20;1.40;;;22.60;47.80;;;;;;5088340;28;20457;-64
2022/05/22 08:13:09;;;;;;;5.15;1.48;;;22.70;47.00;;;;;;5083036;28;20028;-63
2022/05/22 08:15:37;;;;;;;4.63;1.25;;;22.80;47.00;;;;;;5091308;28;20094;-61
2022/05/22 08:18:04;;;;;;;2.33;1.05;;;22.90;46.70;;;;;;5092466;28;20031;-62
2022/05/22 08:20:34;;;;;;;3.80;1.38;;;23.10;46.80;;;;;;5093871;28;20032;-64
2022/05/22 08:23:03;;;;;;;2.75;1.25;;;23.20;46.90;;;;;;5093528;28;20047;-63
2022/05/22 08:25:29;;;;;;;2.63;1.38;;;23.30;47.00;;;;;;5093648;28;20261;-62
2022/05/22 08:27:56;;;;;;;3.00;1.17;;;23.50;46.50;;;;;;5093349;28;20058;-62
2022/05/22 08:30:24;;;;;;;2.92;1.17;;;23.60;46.30;;;;;;5091340;28;20396;-62
2022/05/22 08:32:52;;;;;;;1.70;0.95;;;23.80;45.90;;;;;;5094831;28;20020;-61
2022/05/22 08:35:25;;;;;;;3.28;1.25;;;23.80;45.60;;;;;;5091299;28;20092;-62
2022/05/22 08:37:51;;;;;;;2.37;1.00;;;24.00;45.90;;;;;;5090953;28;20029;-62
2022/05/22 08:40:19;;;;;;;2.22;1.15;;;24.00;45.80;;;;;;5100823;28;20278;-62
2022/05/22 08:43:10;;;;;;;2.90;1.00;;;24.10;45.40;;;;;;5089646;28;20024;-62
2022/05/22 08:45:46;;;;;;;3.08;0.80;;;24.20;44.80;;;;;;5071193;28;20028;-62
2022/05/22 08:48:24;;;;;;;3.35;1.10;;;24.30;44.90;;;;;;5086734;28;20023;-61
2022/05/22 08:50:49;;;;;;;4.07;0.95;;;24.50;44.80;;;;;;5093573;28;20381;-61
2022/05/22 08:53:37;;;;;;;2.50;1.13;;;24.50;44.10;;;;;;5097906;28;20032;-62
2022/05/22 08:59:03;;;;;;;1.73;0.80;;;24.70;43.10;;;;;;5089574;28;20063;-62
2022/05/22 09:01:44;;;;;;;1.80;0.88;;;24.80;44.00;;;;;;5090375;28;20035;-62
2022/05/22 09:04:31;;;;;;;6.53;1.20;;;24.90;43.40;;;;;;5083525;28;20016;-62
2022/05/22 09:07:35;;;;;;;5.07;1.50;;;25.00;41.60;;;;;;5091720;28;20035;-62
2022/05/22 09:10:10;;;;;;;1.50;0.73;;;25.00;41.90;;;;;;5093999;28;20025;-63
2022/05/22 09:12:46;;;;;;;1.98;1.08;;;25.00;43.60;;;;;;5093595;28;20058;-62
2022/05/22 09:15:20;;;;;;;3.33;1.23;;;25.10;42.60;;;;;;5086127;28;20074;-61
2022/05/22 09:17:55;;;;;;;2.05;1.05;;;25.20;42.40;;;;;;5085699;28;20031;-62
2022/05/22 09:20:43;;;;;;;1.98;0.80;;;25.30;41.90;;;;;;5088582;28;20051;-61
2022/05/22 09:23:27;;;;;;;1.77;1.05;;;25.30;41.20;;;;;;5088495;28;20024;-63
2022/05/22 09:26:28;;;;;;;0.98;0.80;;;25.30;42.10;;;;;;5087926;28;20048;-63
2022/05/22 09:29:19;;;;;;;3.63;1.02;;;25.40;40.90;;;;;;5086482;28;20051;-64
2022/05/22 09:32:08;;;;;;;2.35;1.10;;;25.40;40.70;;;;;;5093135;28;20055;-63
2022/05/22 09:34:56;;;;;;;2.97;1.08;;;25.40;41.90;;;;;;5093231;28;20105;-62
2022/05/22 09:38:03;;;;;;;2.80;0.80;;;25.50;41.80;;;;;;5088113;28;20050;-63
2022/05/22 09:40:44;;;;;;;1.58;1.00;;;25.60;41.80;;;;;;5033522;28;20453;-62
2022/05/22 09:43:31;;;;;;;4.93;2.63;;;25.70;40.70;;;;;;5087137;28;20052;-63
2022/05/22 09:46:33;;;;;;;2.38;1.20;;;25.80;40.20;;;;;;5066597;28;20095;-62
2022/05/22 09:49:04;;;;;;;3.22;0.95;;;25.80;40.90;;;;;;5096197;28;20046;-62
2022/05/22 09:51:43;;;;;;;3.05;1.10;;;25.90;41.00;;;;;;5083461;28;20061;-63
2022/05/22 09:54:27;;;;;;;7.32;1.70;;;26.00;40.00;;;;;;5071889;28;20408;-62
2022/05/22 09:56:52;;;;;;;6.28;1.02;;;26.00;41.70;;;;;;5071954;28;20052;-62
2022/05/22 09:59:27;;;;;;;4.00;1.13;;;26.10;41.10;;;;;;5071044;28;20040;-61
2022/05/22 10:01:58;;;;;;;1.27;0.95;;;26.10;39.10;;;;;;5069975;28;20112;-62
2022/05/22 10:04:52;;;;;;;2.30;0.93;;;26.10;39.90;;;;;;5052490;28;20017;-62
2022/05/22 10:07:32;;;;;;;5.82;1.10;;;26.20;40.40;;;;;;5055976;28;20134;-62
2022/05/22 10:10:15;;;;;;;2.40;0.85;;;26.30;40.80;;;;;;5070403;28;20029;-60
2022/05/22 10:12:57;;;;;;;1.80;0.80;;;26.30;40.00;;;;;;5073131;28;20031;-62
2022/05/22 10:15:37;;;;;;;2.60;0.80;;;26.40;40.60;;;;;;5074547;28;20288;-61
2022/05/22 10:18:18;;;;;;;2.08;1.38;;;26.60;40.20;;;;;;5063952;28;20111;-61
2022/05/22 10:21:14;;;;;;;5.13;1.88;;;26.70;40.00;;;;;;5071260;28;20520;-62
2022/05/22 10:24:08;;;;;;;2.72;1.27;;;26.70;38.90;;;;;;5068516;28;20032;-62
2022/05/22 10:26:52;;;;;;;6.10;1.47;;;26.80;38.90;;;;;;5065956;28;20025;-62
2022/05/22 10:29:37;;;;;;;3.28;1.02;;;26.80;39.40;;;;;;5072895;28;20029;-62
2022/05/22 10:32:22;;;;;;;2.45;1.00;;;26.80;38.60;;;;;;5068555;28;20111;-64
2022/05/22 10:35:07;;;;;;;3.28;1.60;;;26.80;38.20;;;;;;5065506;28;20239;-62
2022/05/22 10:37:49;;;;;;;4.20;0.95;;;26.80;38.20;;;;;;5068539;28;20032;-63
2022/05/22 10:40:19;;;;;;;24.73;20.58;;;26.80;38.20;;;;;;5066521;28;20029;-62
2022/05/22 10:42:50;;;;;;;4.72;3.80;;;26.80;38.90;;;;;;5069131;28;20043;-62
2022/05/22 10:45:37;;;;;;;6.03;1.60;;;26.80;38.70;;;;;;5069903;28;20029;-63
2022/05/22 10:48:12;;;;;;;4.55;1.30;;;26.80;39.20;;;;;;5073664;28;20039;-63
2022/05/22 10:50:50;;;;;;;1.88;0.90;;;26.80;38.90;;;;;;5051907;28;20031;-63
2022/05/22 10:53:44;;;;;;;1.88;0.93;;;26.90;38.40;;;;;;5073237;28;20037;-63
2022/05/22 10:56:29;;;;;;;1.67;0.80;;;27.00;39.00;;;;;;5047935;28;20037;-63
2022/05/22 10:59:00;;;;;;;1.73;0.73;;;27.00;37.90;;;;;;5068240;28;20037;-63
2022/05/22 11:01:34;;;;;;;1.00;0.70;;;27.10;38.60;;;;;;5068837;28;20035;-62
2022/05/22 11:04:13;;;;;;;2.63;0.75;;;27.10;38.20;;;;;;5069347;28;20028;-62
2022/05/22 11:06:54;;;;;;;0.73;0.47;;;27.20;37.70;;;;;;5068399;28;20033;-62
2022/05/22 11:09:28;;;;;;;1.42;0.60;;;27.30;37.20;;;;;;5056197;28;20088;-63
2022/05/22 11:12:24;;;;;;;1.70;0.60;;;27.40;36.50;;;;;;5066462;28;20058;-64
2022/05/22 11:14:51;;;;;;;2.53;0.60;;;27.50;35.60;;;;;;5068417;28;20044;-62
2022/05/22 11:17:22;;;;;;;5.38;0.93;;;27.60;36.80;;;;;;5066822;28;20467;-64
2022/05/22 11:19:53;;;;;;;1.48;0.60;;;27.70;36.80;;;;;;5066272;28;20060;-63
2022/05/22 11:22:39;;;;;;;1.00;0.68;;;27.90;37.50;;;;;;5064524;28;20033;-63
2022/05/22 11:25:19;;;;;;;2.47;1.08;;;28.00;36.40;;;;;;5068690;28;20051;-63
2022/05/22 11:28:06;;;;;;;1.92;1.00;;;28.20;36.30;;;;;;5071131;28;20025;-61
2022/05/22 11:30:59;;;;;;;4.57;1.20;;;28.30;35.20;;;;;;5064890;28;20029;-62
2022/05/22 11:33:34;;;;;;;2.05;0.73;;;28.50;34.30;;;;;;5064137;28;20103;-64
2022/05/22 11:36:24;;;;;;;3.75;1.65;;;28.60;34.10;;;;;;5064165;28;20139;-63
2022/05/22 11:39:14;;;;;;;3.80;1.10;;;28.70;34.40;;;;;;5067070;28;20036;-63
2022/05/22 11:41:55;;;;;;;1.98;0.80;;;28.80;35.60;;;;;;5072579;28;20027;-64
2022/05/22 11:44:21;;;;;;;1.67;0.73;;;28.90;34.30;;;;;;5066125;28;20021;-62
2022/05/22 11:46:55;;;;;;;1.10;0.52;;;29.00;32.90;;;;;;5061650;28;20082;-64
2022/05/22 11:49:22;;;;;;;1.88;0.60;;;29.10;30.50;;;;;;5059095;28;20650;-62
2022/05/22 11:52:53;;;;;;;0.73;0.40;;;29.20;30.40;;;;;;5066298;28;20074;-63
2022/05/22 11:55:34;;;;;;;1.05;0.47;;;29.30;28.90;;;;;;5066344;28;20040;-63
2022/05/22 11:58:28;;;;;;;1.23;0.50;;;29.30;29.20;;;;;;5071417;28;20035;-63
2022/05/22 12:01:18;;;;;;;1.10;0.60;;;29.20;26.70;;;;;;5052954;28;20036;-63
2022/05/22 12:03:46;;;;;;;1.15;0.60;;;29.20;28.00;;;;;;5071125;28;20040;-61
2022/05/22 12:06:45;;;;;;;1.38;0.80;;;29.00;27.90;;;;;;5069986;28;20021;-61
2022/05/22 12:09:44;;;;;;;3.03;0.55;;;28.90;28.10;;;;;;5074421;28;20028;-65
2022/05/22 12:12:43;;;;;;;1.52;0.70;;;28.80;28.70;;;;;;5055084;28;20028;-61
2022/05/22 12:15:24;;;;;;;1.48;0.47;;;28.80;27.70;;;;;;5068959;28;20040;-62
2022/05/22 12:17:53;;;;;;;1.33;0.40;;;28.80;28.30;;;;;;5053797;28;20758;-61
2022/05/22 12:20:48;;;;;;;1.27;0.40;;;28.80;29.60;;;;;;5068031;28;20032;-62
2022/05/22 12:23:38;;;;;;;1.58;0.43;;;28.90;28.40;;;;;;5052973;28;20022;-63
2022/05/22 12:26:08;;;;;;;9.55;0.60;;;28.90;27.20;;;;;;4985102;28;20558;-64
2022/05/22 12:28:52;;;;;;;2.25;0.70;;;28.90;28.20;;;;;;5071962;28;20440;-63
2022/05/22 12:31:20;;;;;;;1.55;0.85;;;28.90;27.10;;;;;;5074445;28;20032;-63
2022/05/22 12:33:47;;;;;;;0.68;0.60;;;28.80;27.10;;;;;;5054427;28;20028;-63
2022/05/22 12:36:16;;;;;;;2.13;0.55;;;28.80;28.30;;;;;;5067414;28;20033;-64
2022/05/22 12:38:47;;;;;;;0.90;0.50;;;28.70;28.10;;;;;;5071298;28;20090;-63
2022/05/22 12:41:41;;;;;;;4.85;0.70;;;28.80;28.20;;;;;;5067900;28;20084;-61
2022/05/22 12:44:07;;;;;;;1.05;0.50;;;28.80;27.80;;;;;;5073466;28;20028;-61
2022/05/22 12:46:36;;;;;;;0.85;0.50;;;28.90;27.60;;;;;;5066899;28;20044;-63
2022/05/22 12:49:23;;;;;;;0.73;0.40;;;28.90;28.00;;;;;;5070927;28;20035;-63
2022/05/22 12:52:26;;;;;;;0.77;0.50;;;29.00;28.40;;;;;;5073510;28;20059;-63
2022/05/22 12:55:00;;;;;;;1.90;1.17;;;29.20;26.70;;;;;;5094972;28;20044;-63
2022/05/22 12:57:26;;;;;;;1.35;0.60;;;29.30;26.60;;;;;;5090492;28;20123;-63
2022/05/22 13:00:12;;;;;;;1.95;0.50;;;29.40;27.20;;;;;;5089574;28;20024;-62
2022/05/22 13:02:43;;;;;;;0.57;0.40;;;29.60;27.00;;;;;;5081557;28;20048;-63
2022/05/22 13:05:15;;;;;;;0.75;0.40;;;29.80;26.70;;;;;;5095899;28;20028;-63
2022/05/22 13:07:42;;;;;;;1.35;0.40;;;29.90;25.80;;;;;;5086514;28;20088;-64
2022/05/22 13:10:17;;;;;;;1.33;0.47;;;30.00;25.40;;;;;;5078334;28;20020;-64
2022/05/22 13:12:44;;;;;;;1.33;0.82;;;30.10;25.30;;;;;;5095690;28;20035;-63
2022/05/22 13:15:15;;;;;;;2.15;0.65;;;30.30;25.70;;;;;;5090088;28;20549;-63